createdAt,value
2023-04-24T00:02:48.345Z,97883.84
2023-04-24T00:08:50.473Z,97882.22
2023-04-24T00:14:52.561Z,97885.34
2023-04-24T00:20:54.460Z,97890.50
2023-04-24T00:26:56.395Z,97884.44
2023-04-24T00:32:59.058Z,97885.44
2023-04-24T00:39:00.991Z,97887.97
2023-04-24T00:45:04.275Z,97893.03
2023-04-24T00:51:06.295Z,97885.56
2023-04-24T00:57:08.396Z,97886.31
2023-04-24T01:03:12.137Z,97882.81
2023-04-24T01:09:15.606Z,97884.69
2023-04-24T01:15:17.545Z,97878.66
2023-04-24T01:21:22.132Z,97866.59
2023-04-24T01:27:24.043Z,97873.09
2023-04-24T01:33:26.411Z,97863.56
2023-04-24T01:39:29.581Z,97848.63
2023-04-24T01:45:31.602Z,97861.38
2023-04-24T01:51:33.567Z,97856.28
2023-04-24T01:57:36.214Z,97865.84
2023-04-24T02:03:38.214Z,97865.66
2023-04-24T02:09:40.392Z,97864.84
2023-04-24T02:15:42.464Z,97866.03
2023-04-24T02:21:44.343Z,97879.31
2023-04-24T02:27:46.238Z,97873.66
2023-04-24T02:33:48.418Z,97861.44
2023-04-24T02:39:50.400Z,97862.00
2023-04-24T02:45:52.342Z,97863.91
2023-04-24T02:51:54.260Z,97862.25
2023-04-24T02:57:56.178Z,97863.41
2023-04-24T03:03:58.189Z,97857.13
2023-04-24T03:10:00.604Z,97842.81
2023-04-24T03:16:02.895Z,97832.56
2023-04-24T03:22:04.946Z,97827.66
2023-04-24T03:28:06.854Z,97822.44
2023-04-24T03:34:08.742Z,97820.31
2023-04-24T03:40:10.923Z,97806.13
2023-04-24T03:46:12.870Z,97807.94
2023-04-24T03:52:14.788Z,97805.34
2023-04-24T03:58:17.080Z,97804.53
2023-04-24T04:04:19.045Z,97811.47
2023-04-24T04:10:21.191Z,97807.34
2023-04-24T04:16:23.561Z,97805.38
2023-04-24T04:22:25.553Z,97815.16
2023-04-24T04:28:27.502Z,97818.94
2023-04-24T04:34:30.728Z,97820.16
2023-04-24T04:40:32.802Z,97820.59
2023-04-24T04:46:35.158Z,97828.22
2023-04-24T04:52:37.153Z,97821.72
2023-04-24T04:58:39.070Z,97834.00
2023-04-24T05:04:41.216Z,97839.97
2023-04-24T05:10:43.221Z,97839.34
2023-04-24T05:16:45.337Z,97829.31
2023-04-24T05:22:47.217Z,97833.88
2023-04-24T05:28:49.177Z,97843.50
2023-04-24T05:34:51.173Z,97835.22
2023-04-24T05:40:53.106Z,97844.59
2023-04-24T05:46:56.596Z,97848.25
2023-04-24T05:53:03.040Z,97846.44
2023-04-24T05:59:05.079Z,97855.19
2023-04-24T06:05:07.493Z,97861.94
2023-04-24T06:11:09.425Z,97858.75
2023-04-24T06:17:11.344Z,97858.00
2023-04-24T06:23:13.280Z,97863.75
2023-04-24T06:29:15.224Z,97866.06
2023-04-24T06:35:17.255Z,97861.91
2023-04-24T06:41:19.434Z,97897.06
2023-04-24T06:47:21.364Z,97912.38
2023-04-24T06:53:23.704Z,97913.28
2023-04-24T06:59:26.121Z,97907.38
2023-04-24T07:05:29.221Z,97915.22
2023-04-24T07:11:31.419Z,97920.03
2023-04-24T07:17:33.434Z,97920.31
2023-04-24T07:23:35.392Z,97928.66
2023-04-24T07:29:37.345Z,97921.66
2023-04-24T07:35:39.438Z,97906.09
2023-04-24T07:41:41.456Z,97934.63
2023-04-24T07:47:46.558Z,97931.84
2023-04-24T07:53:48.590Z,97926.75
2023-04-24T07:59:50.518Z,97934.78
2023-04-24T08:05:52.551Z,97927.38
2023-04-24T08:11:54.895Z,97954.50
2023-04-24T08:17:58.943Z,97962.63
2023-04-24T08:24:01.494Z,97970.91
2023-04-24T08:30:05.253Z,97977.63
2023-04-24T08:36:08.360Z,97985.94
2023-04-24T08:42:12.405Z,97982.03
2023-04-24T08:48:27.268Z,97970.59
2023-04-24T08:54:34.861Z,97972.91
2023-04-24T09:00:38.805Z,97983.72
2023-04-24T09:06:41.462Z,97978.69
2023-04-24T09:12:45.074Z,98004.19
2023-04-24T09:18:47.100Z,97991.94
2023-04-24T09:24:49.347Z,97986.75
2023-04-24T09:31:23.051Z,98014.56
2023-04-24T09:37:31.450Z,98013.81
2023-04-24T09:43:34.310Z,98003.91
2023-04-24T09:49:38.224Z,98013.94
2023-04-24T09:55:45.787Z,98010.59
2023-04-24T10:01:50.304Z,98015.28
2023-04-24T10:07:52.742Z,98013.31
2023-04-24T10:13:56.467Z,98018.19
2023-04-24T10:20:01.047Z,98014.94
2023-04-24T10:26:03.938Z,98008.22
2023-04-24T10:32:08.436Z,98012.41
2023-04-24T10:38:14.935Z,98007.31
2023-04-24T10:44:17.682Z,97992.53
2023-04-24T10:50:19.813Z,97997.34
2023-04-24T10:56:23.144Z,98005.09
2023-04-24T11:02:41.502Z,98015.06
2023-04-24T11:08:49.179Z,98000.00
2023-04-24T11:15:00.485Z,97998.66
2023-04-24T11:21:17.925Z,97998.91
2023-04-24T11:27:22.376Z,98012.03
2023-04-24T11:33:24.331Z,98012.56
2023-04-24T11:39:26.319Z,97999.59
2023-04-24T11:45:32.079Z,98020.22
2023-04-24T11:51:47.841Z,98013.72
2023-04-24T11:58:01.049Z,98049.72
2023-04-24T12:04:03.254Z,98053.88
2023-04-24T12:10:07.011Z,98066.69
2023-04-24T12:16:09.003Z,98060.38
2023-04-24T12:22:11.003Z,98068.88
2023-04-24T12:28:14.391Z,98073.78
2023-04-24T12:34:21.614Z,98099.19
2023-04-24T12:40:26.758Z,98100.00
2023-04-24T12:46:28.679Z,98114.91
2023-04-24T12:52:31.619Z,98132.31
2023-04-24T12:58:33.504Z,98135.91
2023-04-24T13:04:35.412Z,98154.06
2023-04-24T13:10:37.380Z,98151.44
2023-04-24T13:16:39.287Z,98160.22
2023-04-24T13:22:41.217Z,98173.56
2023-04-24T13:28:43.216Z,98167.34
2023-04-24T13:34:45.129Z,98178.44
2023-04-24T13:40:47.023Z,98187.72
2023-04-24T13:46:52.768Z,98202.72
2023-04-24T13:52:55.219Z,98219.19
2023-04-24T13:58:57.672Z,98232.06
2023-04-24T14:04:59.698Z,98233.09
2023-04-24T14:11:04.035Z,98236.16
2023-04-24T14:17:06.782Z,98246.44
2023-04-24T14:23:08.748Z,98251.63
2023-04-24T14:29:14.765Z,98253.16
2023-04-24T14:35:17.388Z,98251.09
2023-04-24T14:41:19.376Z,98266.97
2023-04-24T14:47:22.737Z,98268.88
2023-04-24T14:53:24.884Z,98280.28
2023-04-24T14:59:26.837Z,98277.06
2023-04-24T15:05:29.101Z,98272.59
2023-04-24T15:11:31.176Z,98291.22
2023-04-24T15:17:33.161Z,98300.34
2023-04-24T15:23:35.075Z,98307.72
2023-04-24T15:29:37.106Z,98295.19
2023-04-24T15:35:39.081Z,98317.53
2023-04-24T15:41:40.976Z,98318.00
2023-04-24T15:47:42.949Z,98323.81
2023-04-24T15:53:47.243Z,98324.69
2023-04-24T15:59:49.581Z,98320.88
2023-04-24T16:05:53.463Z,98331.44
2023-04-24T16:11:55.596Z,98334.66
2023-04-24T16:17:58.445Z,98326.66
2023-04-24T16:24:00.457Z,98340.00
2023-04-24T16:30:03.069Z,98341.28
2023-04-24T16:36:07.356Z,98335.47
2023-04-24T16:42:09.525Z,98356.22
2023-04-24T16:48:11.504Z,98370.69
2023-04-24T16:54:13.400Z,98379.06
2023-04-24T17:00:16.416Z,98382.94
2023-04-24T17:06:18.402Z,98387.13
2023-04-24T17:12:20.386Z,98385.88
2023-04-24T17:18:22.334Z,98390.38
2023-04-24T17:24:24.559Z,98387.28
2023-04-24T17:30:26.761Z,98390.69
2023-04-24T17:36:28.698Z,98390.59
2023-04-24T17:42:30.701Z,98394.59
2023-04-24T17:48:32.642Z,98389.06
2023-04-24T17:54:34.834Z,98389.25
2023-04-24T18:00:37.359Z,98397.25
2023-04-24T18:06:39.779Z,98401.97
2023-04-24T18:12:41.753Z,98398.69
2023-04-24T18:18:43.700Z,98404.81
2023-04-24T18:24:45.679Z,98428.44
2023-04-24T18:30:47.872Z,98426.56
2023-04-24T18:36:49.773Z,98451.06
2023-04-24T18:42:51.732Z,98448.63
2023-04-24T18:48:53.680Z,98447.22
2023-04-24T18:54:55.688Z,98455.31
2023-04-24T19:00:57.912Z,98461.88
2023-04-24T19:06:59.832Z,98463.34
2023-04-24T19:13:01.915Z,98469.44
2023-04-24T19:19:05.538Z,98485.91
2023-04-24T19:25:08.696Z,98492.53
2023-04-24T19:31:10.718Z,98492.75
2023-04-24T19:37:13.319Z,98500.19
2023-04-24T19:43:15.214Z,98494.81
2023-04-24T19:49:17.266Z,98487.47
2023-04-24T19:55:19.327Z,98478.16
2023-04-24T20:01:21.487Z,98485.59
2023-04-24T20:07:23.429Z,98494.31
2023-04-24T20:13:28.144Z,98488.75
2023-04-24T20:19:30.261Z,98496.16
2023-04-24T20:25:32.214Z,98487.72
2023-04-24T20:31:34.707Z,98490.00
2023-04-24T20:37:36.867Z,98489.59
2023-04-24T20:43:39.605Z,98487.31
2023-04-24T20:49:41.640Z,98492.47
2023-04-24T20:55:43.642Z,98474.16
2023-04-24T21:01:45.632Z,98481.75
2023-04-24T21:07:47.718Z,98487.31
2023-04-24T21:13:49.841Z,98481.56
2023-04-24T21:19:52.016Z,98481.38
2023-04-24T21:25:53.925Z,98471.28
2023-04-24T21:31:56.026Z,98480.38
2023-04-24T21:37:57.932Z,98473.81
2023-04-24T21:43:59.913Z,98481.00
2023-04-24T21:50:01.967Z,98486.09
2023-04-24T21:56:04.129Z,98480.97
2023-04-24T22:02:06.273Z,98472.56
2023-04-24T22:08:08.338Z,98475.00
2023-04-24T22:14:10.997Z,98473.34
2023-04-24T22:20:13.833Z,98464.31
2023-04-24T22:26:15.804Z,98468.41
2023-04-24T22:32:17.764Z,98466.75
2023-04-24T22:38:19.675Z,98468.78
2023-04-24T22:44:22.120Z,98468.16
2023-04-24T22:50:25.459Z,98470.78
2023-04-24T22:56:27.395Z,98467.50
2023-04-24T23:02:29.441Z,98467.28
2023-04-24T23:08:31.452Z,98468.50
2023-04-24T23:14:34.309Z,98465.63
2023-04-24T23:20:36.332Z,98464.09
2023-04-24T23:26:38.378Z,98447.06
2023-04-24T23:32:40.282Z,98444.09
2023-04-24T23:38:49.637Z,98443.84
2023-04-24T23:44:52.585Z,98449.28
2023-04-24T23:50:54.576Z,98442.78
2023-04-24T23:56:56.487Z,98442.19
